createdAt,value
2019-05-11T00:01:50.072Z,97266.16
2019-05-11T00:06:51.603Z,97267.90
2019-05-11T00:11:53.174Z,97266.64
2019-05-11T00:16:54.758Z,97269.57
2019-05-11T00:21:56.245Z,97274.15
2019-05-11T00:26:57.770Z,97269.20
2019-05-11T00:31:59.405Z,97275.48
2019-05-11T00:37:00.866Z,97269.84
2019-05-11T00:42:02.692Z,97272.14
2019-05-11T00:47:04.517Z,97275.62
2019-05-11T00:52:05.979Z,97283.94
2019-05-11T00:57:07.616Z,97285.13
2019-05-11T01:02:09.111Z,97285.06
2019-05-11T01:07:10.577Z,97280.04
2019-05-11T01:12:12.195Z,97286.75
2019-05-11T01:17:13.787Z,97289.13
2019-05-11T01:22:15.267Z,97287.37
2019-05-11T01:27:16.754Z,97292.33
2019-05-11T01:32:18.248Z,97285.77
2019-05-11T01:37:19.776Z,97285.48
2019-05-11T01:42:21.359Z,97289.41
2019-05-11T01:47:22.990Z,97288.62
2019-05-11T01:52:24.466Z,97299.19
2019-05-11T01:57:26.093Z,97302.73
2019-05-11T02:02:27.773Z,97304.48
2019-05-11T02:07:29.245Z,97304.19
2019-05-11T02:12:30.719Z,97301.24
2019-05-11T02:17:32.258Z,97297.97
2019-05-11T02:22:33.850Z,97297.00
2019-05-11T02:27:35.344Z,97292.16
2019-05-11T02:32:36.924Z,97289.36
2019-05-11T02:37:38.503Z,97288.67
2019-05-11T02:42:40.292Z,97289.64
2019-05-11T02:47:42.115Z,97294.28
2019-05-11T02:52:44.026Z,97292.16
2019-05-11T02:57:45.542Z,97296.58
2019-05-11T03:02:47.027Z,97292.59
2019-05-11T03:07:48.529Z,97300.56
2019-05-11T03:12:49.999Z,97303.57
2019-05-11T03:17:51.528Z,97309.00
2019-05-11T03:22:53.007Z,97316.43
2019-05-11T03:27:54.591Z,97323.19
2019-05-11T03:32:56.187Z,97325.92
2019-05-11T03:37:57.735Z,97328.38
2019-05-11T03:42:59.319Z,97336.73
2019-05-11T03:48:00.848Z,97338.63
2019-05-11T03:53:03.614Z,97342.38
2019-05-11T03:58:05.251Z,97340.56
2019-05-11T04:03:07.828Z,97345.55
2019-05-11T04:08:09.501Z,97347.02
2019-05-11T04:13:11.461Z,97341.42
2019-05-11T04:18:13.004Z,97349.80
2019-05-11T04:23:14.526Z,97360.44
2019-05-11T04:28:17.100Z,97362.96
2019-05-11T04:33:18.667Z,97362.63
2019-05-11T04:38:20.215Z,97360.30
2019-05-11T04:43:21.910Z,97368.67
2019-05-11T04:48:23.909Z,97368.47
2019-05-11T04:53:25.658Z,97369.65
2019-05-11T04:58:27.170Z,97372.41
2019-05-11T05:03:40.409Z,97361.84
2019-05-11T05:08:32.179Z,97369.02
2019-05-11T05:13:33.658Z,97379.50
2019-05-11T05:18:35.176Z,97378.11
2019-05-11T05:23:36.693Z,97376.77
2019-05-11T05:28:38.287Z,97381.16
2019-05-11T05:33:39.855Z,97387.70
2019-05-11T05:38:41.347Z,97380.26
2019-05-11T05:43:42.823Z,97381.77
2019-05-11T05:48:44.294Z,97386.58
2019-05-11T05:53:45.804Z,97389.66
2019-05-11T05:58:47.328Z,97392.25
2019-05-11T06:03:48.806Z,97397.79
2019-05-11T06:08:50.282Z,97400.27
2019-05-11T06:13:51.770Z,97406.17
2019-05-11T06:18:53.234Z,97408.41
2019-05-11T06:23:54.780Z,97408.99
2019-05-11T06:28:56.250Z,97408.71
2019-05-11T06:33:57.739Z,97401.22
2019-05-11T06:38:59.205Z,97399.39
2019-05-11T06:44:02.314Z,97404.41
2019-05-11T06:49:04.290Z,97406.23
2019-05-11T06:54:05.824Z,97406.52
2019-05-11T06:59:07.446Z,97410.31
2019-05-11T07:04:08.989Z,97399.91
2019-05-11T07:09:10.497Z,97402.31
2019-05-11T07:14:20.686Z,97401.42
2019-05-11T07:19:15.391Z,97395.42
2019-05-11T07:24:16.914Z,97387.44
2019-05-11T07:29:18.438Z,97392.86
2019-05-11T07:34:19.923Z,97392.57
2019-05-11T07:39:21.446Z,97385.67
2019-05-11T07:44:34.957Z,97390.63
2019-05-11T07:49:26.314Z,97390.55
2019-05-11T07:54:28.228Z,97387.92
2019-05-11T07:59:29.974Z,97382.58
2019-05-11T08:04:31.452Z,97385.45
2019-05-11T08:09:32.931Z,97387.02
2019-05-11T08:14:34.722Z,97384.59
2019-05-11T08:19:38.399Z,97384.02
2019-05-11T08:24:39.968Z,97376.52
2019-05-11T08:29:41.487Z,97373.25
2019-05-11T08:34:42.966Z,97367.83
2019-05-11T08:39:44.550Z,97370.98
2019-05-11T08:44:48.330Z,97361.98
2019-05-11T08:49:49.814Z,97369.31
2019-05-11T08:54:51.294Z,97369.52
2019-05-11T08:59:52.868Z,97368.52
2019-05-11T09:04:54.343Z,97370.14
2019-05-11T09:09:58.556Z,97368.20
2019-05-11T09:15:00.705Z,97361.73
2019-05-11T09:20:04.687Z,97365.70
2019-05-11T09:25:08.801Z,97361.09
2019-05-11T09:30:11.657Z,97359.13
2019-05-11T09:35:13.535Z,97349.59
2019-05-11T09:40:18.068Z,97340.00
2019-05-11T09:45:19.401Z,97334.45
2019-05-11T09:50:20.906Z,97348.77
2019-05-11T09:55:22.477Z,97353.12
2019-05-11T10:00:24.757Z,97350.13
2019-05-11T10:05:28.457Z,97349.43
2019-05-11T10:10:30.047Z,97348.87
2019-05-11T10:15:31.626Z,97348.55
2019-05-11T10:20:33.203Z,97350.83
2019-05-11T10:25:34.678Z,97349.77
2019-05-11T10:30:38.595Z,97345.54
2019-05-11T10:35:39.973Z,97339.02
2019-05-11T10:40:41.647Z,97337.31
2019-05-11T10:45:43.218Z,97333.05
2019-05-11T10:50:44.702Z,97335.80
2019-05-11T10:55:47.944Z,97328.22
2019-05-11T11:00:49.692Z,97328.80
2019-05-11T11:05:51.225Z,97324.63
2019-05-11T11:10:52.687Z,97324.36
2019-05-11T11:15:57.640Z,97325.30
2019-05-11T11:20:58.751Z,97320.64
2019-05-11T11:26:00.431Z,97321.48
2019-05-11T11:31:02.181Z,97312.84
2019-05-11T11:36:03.841Z,97310.83
2019-05-11T11:41:07.471Z,97311.33
2019-05-11T11:46:09.020Z,97311.37
2019-05-11T11:51:10.498Z,97308.81
2019-05-11T11:56:11.986Z,97311.59
2019-05-11T12:01:13.491Z,97315.42
2019-05-11T12:06:15.022Z,97303.63
2019-05-11T12:11:18.767Z,97307.03
2019-05-11T12:16:20.515Z,97301.84
2019-05-11T12:21:21.984Z,97299.77
2019-05-11T12:26:23.566Z,97303.30
2019-05-11T12:31:25.047Z,97295.41
2019-05-11T12:36:28.062Z,97290.76
2019-05-11T12:41:29.763Z,97291.34
2019-05-11T12:46:31.235Z,97292.62
2019-05-11T12:51:32.719Z,97294.23
2019-05-11T12:56:34.189Z,97295.45
2019-05-11T13:01:37.919Z,97288.23
2019-05-11T13:06:39.243Z,97285.67
2019-05-11T13:11:40.777Z,97291.27
2019-05-11T13:16:42.261Z,97291.23
2019-05-11T13:21:43.735Z,97285.16
2019-05-11T13:26:45.212Z,97289.19
2019-05-11T13:31:48.620Z,97274.34
2019-05-11T13:36:50.128Z,97274.84
2019-05-11T13:41:51.603Z,97270.90
2019-05-11T13:46:53.089Z,97271.96
2019-05-11T13:51:54.559Z,97267.70
2019-05-11T13:56:57.660Z,97263.94
2019-05-11T14:01:59.495Z,97264.16
2019-05-11T14:07:01.410Z,97263.94
2019-05-11T14:12:04.300Z,97255.23
2019-05-11T14:17:08.126Z,97258.13
2019-05-11T14:22:09.353Z,97254.28
2019-05-11T14:27:10.941Z,97254.78
2019-05-11T14:32:12.404Z,97253.55
2019-05-11T14:37:14.028Z,97255.03
2019-05-11T14:42:15.577Z,97246.02
2019-05-11T14:47:17.975Z,97248.82
2019-05-11T14:52:19.646Z,97250.37
2019-05-11T14:57:21.227Z,97253.08
2019-05-11T15:02:41.011Z,97243.31
2019-05-11T15:07:43.897Z,97242.58
2019-05-11T15:12:45.424Z,97239.27
2019-05-11T15:17:49.313Z,97245.46
2019-05-11T15:22:50.311Z,97243.17
2019-05-11T15:27:51.776Z,97247.63
2019-05-11T15:32:53.252Z,97251.74
2019-05-11T15:37:54.735Z,97257.44
2019-05-11T15:42:58.346Z,97256.95
2019-05-11T15:47:59.668Z,97253.65
2019-05-11T15:53:01.123Z,97251.83
2019-05-11T15:58:02.906Z,97249.73
2019-05-11T16:03:04.679Z,97252.85
2019-05-11T16:08:08.385Z,97254.27
2019-05-11T16:13:10.088Z,97240.41
2019-05-11T16:18:11.603Z,97248.44
2019-05-11T16:23:13.483Z,97242.84
2019-05-11T16:28:19.351Z,97243.40
2019-05-11T16:33:20.583Z,97248.09
2019-05-11T16:38:22.052Z,97247.66
2019-05-11T16:43:23.520Z,97243.42
2019-05-11T16:48:25.053Z,97250.50
2019-05-11T16:53:28.506Z,97254.42
2019-05-11T16:58:29.908Z,97254.84
2019-05-11T17:03:31.515Z,97254.20
2019-05-11T17:08:33.005Z,97261.32
2019-05-11T17:13:53.286Z,97260.57
2019-05-11T17:18:54.831Z,97262.23
2019-05-11T17:23:57.972Z,97251.88
2019-05-11T17:28:59.614Z,97261.01
2019-05-11T17:34:01.096Z,97263.42
2019-05-11T17:39:06.597Z,97268.97
2019-05-11T17:44:08.296Z,97268.12
2019-05-11T17:49:10.008Z,97278.94
2019-05-11T17:54:11.592Z,97279.75
2019-05-11T17:59:13.174Z,97275.17
2019-05-11T18:04:14.686Z,97280.00
2019-05-11T18:09:18.171Z,97276.10
2019-05-11T18:14:19.559Z,97281.45
2019-05-11T18:19:21.207Z,97288.09
2019-05-11T18:24:22.688Z,97297.22
2019-05-11T18:29:24.164Z,97292.83
2019-05-11T18:34:25.651Z,97298.11
2019-05-11T18:39:28.656Z,97298.84
2019-05-11T18:44:30.334Z,97302.77
2019-05-11T18:49:31.876Z,97301.65
2019-05-11T18:54:33.459Z,97303.32
2019-05-11T18:59:37.356Z,97306.70
2019-05-11T19:04:38.730Z,97311.74
2019-05-11T19:09:40.227Z,97317.80
2019-05-11T19:14:41.750Z,97324.52
2019-05-11T19:19:43.394Z,97322.89
2019-05-11T19:24:44.915Z,97324.56
2019-05-11T19:29:48.341Z,97323.25
2019-05-11T19:34:50.874Z,97319.92
2019-05-11T19:39:52.350Z,97315.23
2019-05-11T19:44:53.831Z,97321.95
2019-05-11T19:49:55.323Z,97326.48
2019-05-11T19:54:57.770Z,97330.83
2019-05-11T19:59:59.435Z,97330.70
2019-05-11T20:05:00.953Z,97332.18
2019-05-11T20:10:04.840Z,97337.71
2019-05-11T20:15:08.224Z,97339.56
2019-05-11T20:20:10.729Z,97343.77
2019-05-11T20:25:12.961Z,97340.75
2019-05-11T20:30:14.751Z,97342.44
2019-05-11T20:35:16.531Z,97348.63
2019-05-11T20:40:18.536Z,97352.84
2019-05-11T20:45:20.395Z,97356.19
2019-05-11T20:50:22.081Z,97353.70
2019-05-11T20:55:23.608Z,97350.53
2019-05-11T21:00:27.771Z,97344.86
2019-05-11T21:05:28.911Z,97351.55
2019-05-11T21:10:30.492Z,97349.58
2019-05-11T21:15:32.071Z,97355.42
2019-05-11T21:20:33.544Z,97354.08
2019-05-11T21:25:35.285Z,97358.61
2019-05-11T21:30:39.966Z,97356.94
2019-05-11T21:35:41.631Z,97365.30
2019-05-11T21:40:43.943Z,97363.14
2019-05-11T21:45:45.428Z,97368.98
2019-05-11T21:50:47.005Z,97375.84
2019-05-11T21:55:48.525Z,97379.03
2019-05-11T22:00:50.457Z,97382.67
2019-05-11T22:05:53.878Z,97374.48
2019-05-11T22:10:55.454Z,97371.64
2019-05-11T22:15:58.060Z,97374.31
2019-05-11T22:20:59.852Z,97374.31
2019-05-11T22:26:01.356Z,97384.67
2019-05-11T22:31:02.911Z,97385.66
2019-05-11T22:36:04.491Z,97387.68
2019-05-11T22:41:08.928Z,97389.66
2019-05-11T22:46:09.640Z,97389.66
2019-05-11T22:51:11.162Z,97390.00
2019-05-11T22:56:12.635Z,97393.50
2019-05-11T23:01:14.115Z,97384.14
2019-05-11T23:06:17.906Z,97377.11
2019-05-11T23:11:19.588Z,97379.61
2019-05-11T23:16:21.050Z,97383.95
2019-05-11T23:21:22.526Z,97376.58
2019-05-11T23:26:24.001Z,97373.88
2019-05-11T23:31:27.452Z,97385.88
2019-05-11T23:36:28.969Z,97382.86
2019-05-11T23:41:30.448Z,97386.85
2019-05-11T23:46:33.161Z,97394.84
2019-05-11T23:51:34.598Z,97394.50
2019-05-11T23:56:38.299Z,97399.53
